createdAt,value
2023-02-07T00:01:17.005Z,-3.10
2023-02-07T00:03:45.611Z,-3.37
2023-02-07T00:06:20.172Z,-3.35
2023-02-07T00:08:47.974Z,-3.47
2023-02-07T00:11:20.380Z,-3.47
2023-02-07T00:13:50.426Z,-3.55
2023-02-07T00:16:18.556Z,-3.60
2023-02-07T00:18:46.091Z,-3.42
2023-02-07T00:21:19.365Z,-3.44
2023-02-07T00:23:47.414Z,-3.53
2023-02-07T00:26:15.764Z,-3.61
2023-02-07T00:28:45.720Z,-3.35
2023-02-07T00:31:22.334Z,-3.48
2023-02-07T00:33:51.433Z,-3.55
2023-02-07T00:36:21.593Z,-3.58
2023-02-07T00:38:49.629Z,-3.60
2023-02-07T00:41:20.105Z,-3.61
2023-02-07T00:43:48.111Z,-3.63
2023-02-07T00:46:16.063Z,-3.52
2023-02-07T00:48:43.708Z,-3.53
2023-02-07T00:51:12.298Z,-3.45
2023-02-07T00:53:40.091Z,-3.51
2023-02-07T00:56:08.810Z,-3.57
2023-02-07T00:58:36.282Z,-3.59
2023-02-07T01:01:03.628Z,-3.54
2023-02-07T01:03:33.519Z,-3.47
2023-02-07T01:06:00.644Z,-3.45
2023-02-07T01:08:27.748Z,-3.45
2023-02-07T01:10:54.894Z,-3.37
2023-02-07T01:13:22.626Z,-3.33
2023-02-07T01:15:50.503Z,-3.34
2023-02-07T01:18:17.711Z,-3.30
2023-02-07T01:20:45.323Z,-3.11
2023-02-07T01:23:13.864Z,-3.01
2023-02-07T01:25:43.894Z,-3.26
2023-02-07T01:28:11.147Z,-3.23
2023-02-07T01:30:42.622Z,-3.29
2023-02-07T01:33:10.055Z,-3.39
2023-02-07T01:35:39.112Z,-3.46
2023-02-07T01:38:06.393Z,-3.33
2023-02-07T01:40:38.237Z,-3.42
2023-02-07T01:43:06.938Z,-3.38
2023-02-07T01:45:39.737Z,-3.38
2023-02-07T01:48:34.730Z,-3.27
2023-02-07T01:51:08.077Z,-3.41
2023-02-07T01:53:38.895Z,-3.42
2023-02-07T01:56:15.375Z,-3.54
2023-02-07T01:58:47.793Z,-3.41
2023-02-07T02:01:20.921Z,-3.39
2023-02-07T02:03:51.035Z,-3.59
2023-02-07T02:06:19.899Z,-3.63
2023-02-07T02:08:47.259Z,-3.58
2023-02-07T02:11:51.761Z,-3.54
2023-02-07T02:14:55.926Z,-3.45
2023-02-07T02:17:29.653Z,-3.43
2023-02-07T02:20:29.188Z,-3.49
2023-02-07T02:23:17.422Z,-3.49
2023-02-07T02:26:24.612Z,-3.49
2023-02-07T02:29:25.051Z,-3.35
2023-02-07T02:31:55.574Z,-3.42
2023-02-07T02:34:39.571Z,-3.31
2023-02-07T02:37:32.326Z,-3.17
2023-02-07T02:40:05.867Z,-3.34
2023-02-07T02:42:59.671Z,-3.48
2023-02-07T02:45:36.966Z,-3.40
2023-02-07T02:48:06.918Z,-3.41
2023-02-07T02:50:35.640Z,-3.54
2023-02-07T02:53:02.962Z,-3.29
2023-02-07T02:55:50.919Z,-3.03
2023-02-07T02:58:35.228Z,-3.01
2023-02-07T03:01:21.418Z,-3.26
2023-02-07T03:04:03.823Z,-3.21
2023-02-07T03:06:59.711Z,-3.16
2023-02-07T03:09:30.566Z,-3.02
2023-02-07T03:12:26.087Z,-3.02
2023-02-07T03:15:16.423Z,-3.17
2023-02-07T03:17:58.089Z,-3.22
2023-02-07T03:20:37.682Z,-3.14
2023-02-07T03:23:07.914Z,-3.20
2023-02-07T03:25:38.410Z,-3.28
2023-02-07T03:28:16.538Z,-3.28
2023-02-07T03:30:49.769Z,-3.18
2023-02-07T03:33:19.452Z,-3.17
2023-02-07T03:36:14.368Z,-3.02
2023-02-07T03:38:42.139Z,-3.12
2023-02-07T03:41:21.206Z,-3.13
2023-02-07T03:43:49.626Z,-3.14
2023-02-07T03:46:18.162Z,-3.04
2023-02-07T03:48:45.195Z,-3.06
2023-02-07T03:51:12.530Z,-3.07
2023-02-07T03:53:39.492Z,-3.38
2023-02-07T03:56:06.679Z,-3.49
2023-02-07T03:58:33.699Z,-3.45
2023-02-07T04:01:00.759Z,-3.23
2023-02-07T04:03:27.886Z,-3.26
2023-02-07T04:05:55.030Z,-3.27
2023-02-07T04:08:24.174Z,-3.38
2023-02-07T04:11:01.626Z,-3.28
2023-02-07T04:13:29.151Z,-3.18
2023-02-07T04:15:56.783Z,-3.31
2023-02-07T04:18:26.497Z,-3.32
2023-02-07T04:21:01.495Z,-3.27
2023-02-07T04:23:28.554Z,-3.30
2023-02-07T04:25:56.399Z,-3.12
2023-02-07T04:28:23.548Z,-3.47
2023-02-07T04:30:53.003Z,-3.45
2023-02-07T04:33:21.459Z,-3.49
2023-02-07T04:35:59.530Z,-3.37
2023-02-07T04:38:27.748Z,-3.44
2023-02-07T04:41:03.698Z,-3.45
2023-02-07T04:43:32.295Z,-3.34
2023-02-07T04:45:59.356Z,-3.31
2023-02-07T04:48:26.658Z,-3.16
2023-02-07T04:50:54.076Z,-3.14
2023-02-07T04:53:21.157Z,-3.21
2023-02-07T04:55:52.714Z,-3.29
2023-02-07T04:58:21.138Z,-3.40
2023-02-07T05:00:48.304Z,-3.42
2023-02-07T05:03:17.691Z,-3.44
2023-02-07T05:05:45.872Z,-3.48
2023-02-07T05:08:13.688Z,-3.49
2023-02-07T05:10:41.884Z,-3.36
2023-02-07T05:13:09.434Z,-3.37
2023-02-07T05:15:38.543Z,-3.23
2023-02-07T05:18:06.237Z,-3.13
2023-02-07T05:20:33.283Z,-3.00
2023-02-07T05:23:00.370Z,-3.11
2023-02-07T05:25:27.366Z,-3.18
2023-02-07T05:28:01.676Z,-3.18
2023-02-07T05:30:28.713Z,-3.17
2023-02-07T05:33:04.582Z,-3.15
2023-02-07T05:35:33.868Z,-3.08
2023-02-07T05:38:01.296Z,-3.04
2023-02-07T05:40:28.564Z,-3.10
2023-02-07T05:42:55.594Z,-3.14
2023-02-07T05:45:22.669Z,-3.15
2023-02-07T05:47:49.694Z,-3.07
2023-02-07T05:50:16.842Z,-3.07
2023-02-07T05:52:44.523Z,-3.16
2023-02-07T05:55:13.498Z,-3.12
2023-02-07T05:57:41.985Z,-3.19
2023-02-07T06:00:12.680Z,-3.10
2023-02-07T06:02:41.589Z,-3.03
2023-02-07T06:05:11.227Z,-3.03
2023-02-07T06:07:39.664Z,-3.11
2023-02-07T06:10:09.447Z,-2.90
2023-02-07T06:12:36.495Z,-2.78
2023-02-07T06:15:04.092Z,-2.88
2023-02-07T06:17:31.241Z,-2.83
2023-02-07T06:19:58.262Z,-2.75
2023-02-07T06:22:25.488Z,-2.75
2023-02-07T06:24:52.603Z,-2.85
2023-02-07T06:27:19.724Z,-2.92
2023-02-07T06:29:46.778Z,-2.91
2023-02-07T06:32:13.805Z,-2.80
2023-02-07T06:34:41.591Z,-2.81
2023-02-07T06:37:08.614Z,-2.82
2023-02-07T06:39:35.619Z,-2.87
2023-02-07T06:42:06.291Z,-2.71
2023-02-07T06:44:33.280Z,-2.72
2023-02-07T06:47:00.828Z,-2.36
2023-02-07T06:49:27.834Z,-2.11
2023-02-07T06:51:55.156Z,-2.06
2023-02-07T06:54:22.175Z,-1.90
2023-02-07T06:56:51.624Z,-1.59
2023-02-07T06:59:19.200Z,-1.47
2023-02-07T07:01:49.393Z,-1.31
2023-02-07T07:04:18.573Z,-1.24
2023-02-07T07:06:48.621Z,-1.02
2023-02-07T07:09:15.911Z,-0.98
2023-02-07T07:11:44.278Z,-0.88
2023-02-07T07:14:12.746Z,-0.84
2023-02-07T07:16:42.305Z,-0.92
2023-02-07T07:19:09.588Z,-0.75
2023-02-07T07:21:37.331Z,-0.94
2023-02-07T07:24:07.156Z,-0.86
2023-02-07T07:26:48.434Z,-0.83
2023-02-07T07:29:17.105Z,-0.67
2023-02-07T07:31:44.481Z,-0.57
2023-02-07T07:34:11.688Z,-0.55
2023-02-07T07:36:38.911Z,-0.79
2023-02-07T07:39:07.434Z,-0.56
2023-02-07T07:41:34.522Z,-0.38
2023-02-07T07:44:01.580Z,-0.14
2023-02-07T07:46:28.821Z,0.11
2023-02-07T07:48:55.947Z,0.11
2023-02-07T07:51:23.552Z,0.39
2023-02-07T07:53:51.115Z,0.24
2023-02-07T07:56:18.095Z,0.45
2023-02-07T07:58:45.522Z,0.51
2023-02-07T08:01:12.805Z,0.40
2023-02-07T08:03:39.835Z,0.37
2023-02-07T08:06:08.658Z,0.26
2023-02-07T08:08:35.592Z,0.18
2023-02-07T08:11:05.861Z,0.28
2023-02-07T08:13:38.006Z,0.49
2023-02-07T08:16:11.177Z,0.64
2023-02-07T08:18:39.291Z,0.71
2023-02-07T08:21:08.798Z,0.81
2023-02-07T08:23:37.566Z,0.36
2023-02-07T08:26:05.244Z,-0.02
2023-02-07T08:28:32.393Z,-0.47
2023-02-07T08:31:04.161Z,-0.40
2023-02-07T08:33:32.106Z,-0.47
2023-02-07T08:36:00.788Z,-0.32
2023-02-07T08:38:28.019Z,-0.42
2023-02-07T08:40:55.053Z,-0.51
2023-02-07T08:43:22.073Z,-0.64
2023-02-07T08:45:49.687Z,-0.44
2023-02-07T08:48:17.066Z,-0.34
2023-02-07T08:50:44.122Z,-0.25
2023-02-07T08:53:11.469Z,-0.36
2023-02-07T08:55:41.071Z,-0.24
2023-02-07T08:58:08.484Z,0.26
2023-02-07T09:00:35.840Z,0.55
2023-02-07T09:03:04.479Z,0.89
2023-02-07T09:05:35.628Z,1.14
2023-02-07T09:08:03.098Z,1.20
2023-02-07T09:10:31.210Z,1.16
2023-02-07T09:12:59.907Z,1.20
2023-02-07T09:15:27.083Z,1.47
2023-02-07T09:17:54.647Z,1.43
2023-02-07T09:20:21.719Z,1.40
2023-02-07T09:23:11.097Z,0.89
2023-02-07T09:25:40.436Z,0.66
2023-02-07T09:28:08.911Z,1.16
2023-02-07T09:30:36.595Z,1.07
2023-02-07T09:33:04.000Z,0.82
2023-02-07T09:35:31.665Z,0.30
2023-02-07T09:38:01.346Z,0.55
2023-02-07T09:40:28.906Z,0.04
2023-02-07T09:43:02.325Z,-0.17
2023-02-07T09:45:34.943Z,-0.07
2023-02-07T09:48:11.208Z,-0.26
2023-02-07T09:51:00.896Z,0.08
2023-02-07T09:53:49.729Z,-0.32
2023-02-07T09:56:19.565Z,-0.36
2023-02-07T09:59:16.168Z,-0.50
2023-02-07T10:01:47.737Z,-0.62
2023-02-07T10:04:23.370Z,-0.40
2023-02-07T10:06:55.281Z,-0.59
2023-02-07T10:09:29.348Z,-0.52
2023-02-07T10:12:17.652Z,-0.11
2023-02-07T10:14:53.738Z,0.45
2023-02-07T10:17:31.404Z,0.61
2023-02-07T10:20:19.731Z,0.13
2023-02-07T10:23:20.674Z,0.16
2023-02-07T10:26:04.115Z,0.54
2023-02-07T10:29:04.301Z,-0.25
2023-02-07T10:31:33.865Z,0.03
2023-02-07T10:37:32.378Z,0.06
2023-02-07T10:40:24.599Z,0.33
2023-02-07T10:43:07.400Z,-0.35
2023-02-07T10:45:35.257Z,-0.35
2023-02-07T10:48:02.641Z,-0.04
2023-02-07T10:50:32.760Z,0.16
2023-02-07T10:53:00.039Z,0.85
2023-02-07T10:55:46.620Z,1.01
2023-02-07T10:58:23.861Z,0.89
2023-02-07T11:00:55.491Z,0.30
2023-02-07T11:03:24.865Z,0.13
2023-02-07T11:06:02.904Z,0.06
2023-02-07T11:08:35.380Z,0.22
2023-02-07T11:11:39.737Z,0.87
2023-02-07T11:14:18.220Z,0.44
2023-02-07T11:16:46.068Z,1.16
2023-02-07T11:19:20.866Z,0.24
2023-02-07T11:21:50.736Z,0.26
2023-02-07T11:24:17.696Z,0.33
2023-02-07T11:26:56.549Z,0.23
2023-02-07T11:29:25.476Z,0.19
2023-02-07T11:31:55.596Z,0.41
2023-02-07T11:34:28.993Z,0.44
2023-02-07T11:37:11.240Z,0.32
2023-02-07T11:39:44.251Z,0.49
2023-02-07T11:42:15.099Z,0.55
2023-02-07T11:44:43.915Z,0.61
2023-02-07T11:47:18.194Z,0.68
2023-02-07T11:50:00.056Z,1.46
2023-02-07T11:52:28.096Z,1.67
2023-02-07T11:55:01.158Z,2.25
2023-02-07T11:57:33.621Z,2.73
2023-02-07T12:00:23.297Z,2.34
2023-02-07T12:03:03.185Z,1.79
2023-02-07T12:05:38.394Z,2.33
2023-02-07T12:08:21.029Z,2.17
2023-02-07T12:10:53.144Z,1.92
2023-02-07T12:13:46.777Z,1.02
2023-02-07T12:16:23.261Z,0.53
2023-02-07T12:19:10.730Z,0.64
2023-02-07T12:21:57.414Z,0.73
2023-02-07T12:24:33.367Z,1.34
2023-02-07T12:27:12.279Z,1.75
2023-02-07T12:30:17.944Z,0.82
2023-02-07T12:32:58.298Z,0.79
2023-02-07T12:35:41.099Z,1.11
2023-02-07T12:38:31.148Z,0.94
2023-02-07T12:41:12.874Z,0.87
2023-02-07T12:43:48.870Z,0.36
2023-02-07T12:46:56.489Z,0.39
2023-02-07T12:49:52.489Z,0.64
2023-02-07T12:52:40.197Z,0.77
2023-02-07T12:55:39.421Z,0.58
2023-02-07T12:58:35.862Z,0.24
2023-02-07T13:01:29.357Z,0.97
2023-02-07T13:04:45.527Z,1.58
2023-02-07T13:07:42.119Z,2.13
2023-02-07T13:10:31.958Z,2.21
2023-02-07T13:13:20.669Z,1.37
2023-02-07T13:15:56.527Z,1.53
2023-02-07T13:18:46.365Z,2.13
2023-02-07T13:21:31.496Z,3.27
2023-02-07T13:24:01.826Z,2.97
2023-02-07T13:26:29.544Z,1.94
2023-02-07T13:29:02.617Z,2.30
2023-02-07T13:31:45.648Z,3.59
2023-02-07T13:34:18.484Z,2.85
2023-02-07T13:36:53.450Z,2.03
2023-02-07T13:39:48.736Z,2.43
2023-02-07T13:42:54.676Z,2.15
2023-02-07T13:45:37.657Z,2.05
2023-02-07T13:48:26.642Z,1.82
2023-02-07T13:51:18.154Z,1.74
2023-02-07T13:54:08.539Z,1.94
2023-02-07T13:56:55.106Z,2.09
2023-02-07T13:59:41.338Z,1.89
2023-02-07T14:02:22.929Z,3.22
2023-02-07T14:04:56.142Z,3.05
2023-02-07T14:07:34.179Z,2.38
2023-02-07T14:10:02.427Z,1.49
2023-02-07T14:12:34.622Z,1.55
2023-02-07T14:15:34.988Z,1.47
2023-02-07T14:18:05.998Z,1.72
2023-02-07T14:20:43.418Z,2.49
2023-02-07T14:23:19.979Z,3.15
2023-02-07T14:25:47.556Z,2.42
2023-02-07T14:28:33.945Z,1.94
2023-02-07T14:31:11.684Z,1.95
2023-02-07T14:33:39.455Z,1.86
2023-02-07T14:36:19.845Z,1.99
2023-02-07T14:39:10.684Z,2.17
2023-02-07T14:41:41.428Z,2.19
2023-02-07T14:44:32.897Z,2.80
2023-02-07T14:47:02.484Z,2.33
2023-02-07T14:49:44.444Z,2.05
2023-02-07T14:52:33.336Z,2.01
2023-02-07T14:55:40.113Z,3.17
2023-02-07T14:58:34.051Z,4.39
2023-02-07T15:01:01.096Z,3.77
2023-02-07T15:03:33.959Z,2.95
2023-02-07T15:06:04.682Z,3.98
2023-02-07T15:08:35.034Z,2.77
2023-02-07T15:11:11.913Z,2.73
2023-02-07T15:13:48.134Z,2.02
2023-02-07T15:16:15.437Z,1.94
2023-02-07T15:18:55.200Z,2.01
2023-02-07T15:21:39.550Z,2.21
2023-02-07T15:24:16.586Z,1.50
2023-02-07T15:26:50.021Z,1.28
2023-02-07T15:29:26.486Z,1.63
2023-02-07T15:31:54.382Z,1.06
2023-02-07T15:34:24.928Z,1.42
2023-02-07T15:36:53.816Z,1.35
2023-02-07T15:39:24.260Z,1.16
2023-02-07T15:41:56.733Z,1.67
2023-02-07T15:44:29.519Z,0.91
2023-02-07T15:47:02.932Z,0.46
2023-02-07T15:49:42.322Z,0.04
2023-02-07T15:52:33.006Z,0.17
2023-02-07T15:55:06.128Z,-0.35
2023-02-07T15:57:41.905Z,-0.61
2023-02-07T16:00:14.578Z,-0.56
2023-02-07T16:02:56.224Z,-0.73
2023-02-07T16:05:32.359Z,-0.85
2023-02-07T16:08:01.821Z,-0.98
2023-02-07T16:10:44.448Z,-1.15
2023-02-07T16:13:22.930Z,-0.94
2023-02-07T16:15:59.693Z,-1.06
2023-02-07T16:18:48.437Z,-1.23
2023-02-07T16:21:28.055Z,-1.29
2023-02-07T16:24:14.073Z,-1.35
2023-02-07T16:26:42.195Z,-1.38
2023-02-07T16:29:23.535Z,-1.43
2023-02-07T16:31:52.715Z,-1.43
2023-02-07T16:34:21.215Z,-1.48
2023-02-07T16:36:50.992Z,-1.28
2023-02-07T16:39:19.046Z,-1.17
2023-02-07T16:41:55.124Z,-1.28
2023-02-07T16:44:26.501Z,-1.35
2023-02-07T16:46:53.737Z,-1.41
2023-02-07T16:49:22.871Z,-1.31
2023-02-07T16:51:50.410Z,-1.36
2023-02-07T16:54:19.945Z,-1.48
2023-02-07T16:56:50.859Z,-1.34
2023-02-07T16:59:23.508Z,-1.48
2023-02-07T17:01:53.268Z,-1.59
2023-02-07T17:04:20.878Z,-1.45
2023-02-07T17:06:49.261Z,-1.57
2023-02-07T17:09:19.261Z,-1.59
2023-02-07T17:11:47.761Z,-1.75
2023-02-07T17:14:15.134Z,-1.92
2023-02-07T17:16:42.325Z,-1.94
2023-02-07T17:19:18.866Z,-1.91
2023-02-07T17:21:47.479Z,-1.96
2023-02-07T17:24:14.479Z,-1.97
2023-02-07T17:26:46.431Z,-2.02
2023-02-07T17:29:15.278Z,-2.03
2023-02-07T17:31:42.900Z,-2.06
2023-02-07T17:34:10.357Z,-2.08
2023-02-07T17:36:40.293Z,-2.12
2023-02-07T17:39:10.776Z,-2.07
2023-02-07T17:41:38.783Z,-2.02
2023-02-07T17:44:06.131Z,-2.15
2023-02-07T17:46:33.687Z,-2.22
2023-02-07T17:49:01.389Z,-2.12
2023-02-07T17:51:29.439Z,-2.07
2023-02-07T17:53:57.353Z,-2.05
2023-02-07T17:56:30.458Z,-2.16
2023-02-07T17:59:03.092Z,-2.30
2023-02-07T18:01:34.335Z,-2.46
2023-02-07T18:04:02.713Z,-2.39
2023-02-07T18:06:30.934Z,-2.52
2023-02-07T18:09:01.225Z,-2.51
2023-02-07T18:11:28.396Z,-2.63
2023-02-07T18:13:57.408Z,-2.83
2023-02-07T18:16:26.455Z,-3.01
2023-02-07T18:18:55.737Z,-3.02
2023-02-07T18:21:23.875Z,-2.94
2023-02-07T18:23:53.608Z,-2.94
2023-02-07T18:26:21.513Z,-2.99
2023-02-07T18:28:49.125Z,-3.11
2023-02-07T18:31:22.789Z,-3.34
2023-02-07T18:33:51.864Z,-3.14
2023-02-07T18:36:21.482Z,-3.13
2023-02-07T18:38:49.208Z,-3.23
2023-02-07T18:41:23.631Z,-3.14
2023-02-07T18:43:51.888Z,-3.06
2023-02-07T18:46:20.712Z,-3.09
2023-02-07T18:48:51.620Z,-3.20
2023-02-07T18:51:19.737Z,-3.31
2023-02-07T18:53:47.202Z,-3.49
2023-02-07T18:56:23.852Z,-3.49
2023-02-07T18:58:56.936Z,-3.45
2023-02-07T19:01:26.505Z,-3.38
2023-02-07T19:03:55.345Z,-3.39
2023-02-07T19:06:27.176Z,-3.68
2023-02-07T19:08:54.537Z,-3.85
2023-02-07T19:11:21.510Z,-3.88
2023-02-07T19:13:48.866Z,-3.95
2023-02-07T19:16:19.200Z,-3.97
2023-02-07T19:18:47.172Z,-3.91
2023-02-07T19:21:17.866Z,-3.88
2023-02-07T19:23:44.960Z,-3.86
2023-02-07T19:26:12.118Z,-3.85
2023-02-07T19:28:39.482Z,-3.93
2023-02-07T19:31:09.220Z,-3.84
2023-02-07T19:33:36.830Z,-3.78
2023-02-07T19:36:09.937Z,-3.77
2023-02-07T19:38:40.314Z,-3.83
2023-02-07T19:41:10.192Z,-3.95
2023-02-07T19:43:37.847Z,-4.06
2023-02-07T19:46:05.284Z,-4.09
2023-02-07T19:48:37.378Z,-4.09
2023-02-07T19:51:10.530Z,-4.08
2023-02-07T19:53:37.959Z,-4.12
2023-02-07T19:56:13.606Z,-4.09
2023-02-07T19:58:43.510Z,-4.11
2023-02-07T20:01:11.588Z,-4.18
2023-02-07T20:03:39.977Z,-4.21
2023-02-07T20:06:13.262Z,-4.24
2023-02-07T20:08:41.221Z,-4.13
2023-02-07T20:11:11.004Z,-4.10
2023-02-07T20:13:44.188Z,-4.16
2023-02-07T20:16:13.971Z,-4.11
2023-02-07T20:18:43.444Z,-4.17
2023-02-07T20:21:14.208Z,-4.24
2023-02-07T20:23:47.013Z,-4.16
2023-02-07T20:26:31.466Z,-4.18
2023-02-07T20:29:03.410Z,-4.25
2023-02-07T20:31:32.301Z,-4.29
2023-02-07T20:34:03.150Z,-4.44
2023-02-07T20:36:31.445Z,-4.40
2023-02-07T20:39:00.325Z,-4.34
2023-02-07T20:41:29.537Z,-4.23
2023-02-07T20:43:58.843Z,-4.21
2023-02-07T20:46:30.081Z,-4.23
2023-02-07T20:48:59.580Z,-4.29
2023-02-07T20:51:28.312Z,-4.53
2023-02-07T20:54:00.601Z,-4.61
2023-02-07T20:56:28.720Z,-4.58
2023-02-07T20:58:58.148Z,-4.48
2023-02-07T21:01:28.382Z,-4.54
2023-02-07T21:03:59.247Z,-4.78
2023-02-07T21:06:27.357Z,-4.61
2023-02-07T21:09:00.887Z,-4.51
2023-02-07T21:11:40.407Z,-4.53
2023-02-07T21:14:10.861Z,-4.78
2023-02-07T21:16:38.162Z,-4.90
2023-02-07T21:19:05.273Z,-4.90
2023-02-07T21:21:32.494Z,-4.93
2023-02-07T21:24:02.548Z,-4.99
2023-02-07T21:26:30.037Z,-4.99
2023-02-07T21:29:01.183Z,-4.87
2023-02-07T21:31:29.527Z,-4.78
2023-02-07T21:33:57.606Z,-4.82
2023-02-07T21:36:30.554Z,-4.79
2023-02-07T21:39:00.446Z,-4.84
2023-02-07T21:41:29.650Z,-4.91
2023-02-07T21:43:58.887Z,-4.85
2023-02-07T21:46:29.110Z,-4.75
2023-02-07T21:49:01.783Z,-4.76
2023-02-07T21:51:30.891Z,-4.75
2023-02-07T21:53:58.433Z,-4.75
2023-02-07T21:56:27.691Z,-4.78
2023-02-07T21:59:05.769Z,-4.80
2023-02-07T22:01:34.238Z,-4.86
2023-02-07T22:04:03.289Z,-4.83
2023-02-07T22:06:31.431Z,-4.91
2023-02-07T22:09:00.595Z,-4.89
2023-02-07T22:11:30.264Z,-4.91
2023-02-07T22:13:57.917Z,-4.97
2023-02-07T22:16:26.825Z,-5.06
2023-02-07T22:18:55.202Z,-5.08
2023-02-07T22:21:25.242Z,-5.11
2023-02-07T22:23:53.315Z,-5.03
2023-02-07T22:26:22.106Z,-5.05
2023-02-07T22:28:49.602Z,-5.06
2023-02-07T22:31:22.396Z,-4.98
2023-02-07T22:33:50.871Z,-4.99
2023-02-07T22:36:30.150Z,-5.21
2023-02-07T22:38:59.448Z,-5.34
2023-02-07T22:41:27.425Z,-5.39
2023-02-07T22:43:54.946Z,-5.40
2023-02-07T22:46:24.628Z,-5.33
2023-02-07T22:48:52.650Z,-5.40
2023-02-07T22:51:26.576Z,-5.29
2023-02-07T22:53:58.684Z,-5.20
2023-02-07T22:56:26.499Z,-5.14
2023-02-07T22:58:54.580Z,-5.12
2023-02-07T23:01:28.986Z,-5.13
2023-02-07T23:03:56.679Z,-5.23
2023-02-07T23:06:25.699Z,-5.50
2023-02-07T23:08:54.190Z,-5.38
2023-02-07T23:11:23.977Z,-5.79
2023-02-07T23:13:53.048Z,-5.96
2023-02-07T23:16:25.878Z,-5.81
2023-02-07T23:18:58.397Z,-5.64
2023-02-07T23:21:26.689Z,-5.56
2023-02-07T23:23:54.439Z,-5.45
2023-02-07T23:26:26.287Z,-5.37
2023-02-07T23:28:53.665Z,-5.31
2023-02-07T23:31:22.728Z,-5.25
2023-02-07T23:33:50.223Z,-5.23
2023-02-07T23:36:18.036Z,-5.12
2023-02-07T23:38:46.557Z,-5.11
2023-02-07T23:41:13.669Z,-5.13
2023-02-07T23:43:43.587Z,-5.14
2023-02-07T23:46:13.330Z,-5.19
2023-02-07T23:48:42.875Z,-5.13
2023-02-07T23:51:11.458Z,-5.71
2023-02-07T23:53:38.514Z,-6.08
2023-02-07T23:56:06.574Z,-6.06
2023-02-07T23:58:33.976Z,-5.94
